sensor_id;sensor_type;location;lat;lon;timestamp;pressure;altitude;pressure_sealevel;temperature;humidity
58245;BME280;44550;43.864;25.986;2022-07-21T00:01:14;100972.75;;;28.05;33.28
58245;BME280;44550;43.864;25.986;2022-07-21T00:05:18;100996.16;;;28.17;33.30
58245;BME280;44550;43.864;25.986;2022-07-21T00:09:46;100973.00;;;28.00;33.47
58245;BME280;44550;43.864;25.986;2022-07-21T00:13:46;100984.06;;;28.10;33.57
58245;BME280;44550;43.864;25.986;2022-07-21T00:17:49;100944.63;;;27.82;33.81
58245;BME280;44550;43.864;25.986;2022-07-21T00:21:53;100968.13;;;27.93;33.91
58245;BME280;44550;43.864;25.986;2022-07-21T00:25:53;100943.47;;;27.86;33.98
58245;BME280;44550;43.864;25.986;2022-07-21T00:29:54;100986.84;;;28.23;33.82
58245;BME280;44550;43.864;25.986;2022-07-21T00:33:54;100985.59;;;28.28;33.72
58245;BME280;44550;43.864;25.986;2022-07-21T00:37:56;100988.75;;;28.21;33.88
58245;BME280;44550;43.864;25.986;2022-07-21T00:41:56;100966.28;;;27.93;34.29
58245;BME280;44550;43.864;25.986;2022-07-21T00:45:55;100979.84;;;27.92;34.50
58245;BME280;44550;43.864;25.986;2022-07-21T00:49:57;100971.66;;;27.93;34.49
58245;BME280;44550;43.864;25.986;2022-07-21T00:53:59;100976.97;;;27.95;34.46
58245;BME280;44550;43.864;25.986;2022-07-21T00:57:59;100976.38;;;28.04;34.26
58245;BME280;44550;43.864;25.986;2022-07-21T01:01:59;100919.31;;;27.70;34.34
58245;BME280;44550;43.864;25.986;2022-07-21T01:06:02;100951.59;;;27.84;34.65
58245;BME280;44550;43.864;25.986;2022-07-21T01:10:10;100953.91;;;27.76;34.87
58245;BME280;44550;43.864;25.986;2022-07-21T01:14:10;100957.31;;;27.64;35.06
58245;BME280;44550;43.864;25.986;2022-07-21T01:18:10;100968.91;;;27.64;35.24
58245;BME280;44550;43.864;25.986;2022-07-21T01:22:12;100969.50;;;27.55;35.43
58245;BME280;44550;43.864;25.986;2022-07-21T01:26:14;100968.41;;;27.58;35.42
58245;BME280;44550;43.864;25.986;2022-07-21T01:30:14;100965.72;;;27.58;35.47
58245;BME280;44550;43.864;25.986;2022-07-21T01:34:15;100965.41;;;27.48;35.71
58245;BME280;44550;43.864;25.986;2022-07-21T01:38:17;100970.22;;;27.43;36.02
58245;BME280;44550;43.864;25.986;2022-07-21T01:42:30;100966.63;;;27.28;36.39
58245;BME280;44550;43.864;25.986;2022-07-21T01:46:36;100958.69;;;27.11;36.71
58245;BME280;44550;43.864;25.986;2022-07-21T01:50:39;100946.16;;;26.96;36.87
58245;BME280;44550;43.864;25.986;2022-07-21T01:54:41;100968.03;;;27.04;37.08
58245;BME280;44550;43.864;25.986;2022-07-21T01:58:41;100962.84;;;27.01;37.29
58245;BME280;44550;43.864;25.986;2022-07-21T02:02:42;100967.03;;;26.90;37.45
58245;BME280;44550;43.864;25.986;2022-07-21T02:06:49;100979.16;;;26.82;37.86
58245;BME280;44550;43.864;25.986;2022-07-21T02:10:52;100993.34;;;26.52;38.46
58245;BME280;44550;43.864;25.986;2022-07-21T02:14:52;100978.44;;;26.46;38.77
58245;BME280;44550;43.864;25.986;2022-07-21T02:18:52;100985.56;;;26.47;39.70
58245;BME280;44550;43.864;25.986;2022-07-21T02:22:53;100973.75;;;26.34;39.17
58245;BME280;44550;43.864;25.986;2022-07-21T02:26:55;100983.94;;;26.28;39.25
58245;BME280;44550;43.864;25.986;2022-07-21T02:30:55;100957.34;;;25.91;39.88
58245;BME280;44550;43.864;25.986;2022-07-21T02:34:59;100968.09;;;26.07;39.94
58245;BME280;44550;43.864;25.986;2022-07-21T02:38:58;100968.53;;;25.99;40.05
58245;BME280;44550;43.864;25.986;2022-07-21T02:43:00;100998.00;;;26.15;40.13
58245;BME280;44550;43.864;25.986;2022-07-21T02:47:00;100996.50;;;25.94;40.26
58245;BME280;44550;43.864;25.986;2022-07-21T02:51:00;100956.31;;;25.59;40.38
58245;BME280;44550;43.864;25.986;2022-07-21T02:55:09;100994.13;;;25.70;40.39
58245;BME280;44550;43.864;25.986;2022-07-21T02:59:12;100997.13;;;25.64;40.60
58245;BME280;44550;43.864;25.986;2022-07-21T03:03:11;100958.88;;;25.27;40.67
58245;BME280;44550;43.864;25.986;2022-07-21T03:07:27;101004.38;;;25.62;40.67
58245;BME280;44550;43.864;25.986;2022-07-21T03:11:37;100992.47;;;25.68;40.32
58245;BME280;44550;43.864;25.986;2022-07-21T03:15:40;101007.00;;;25.81;40.32
58245;BME280;44550;43.864;25.986;2022-07-21T03:19:47;100980.66;;;25.54;40.30
58245;BME280;44550;43.864;25.986;2022-07-21T03:23:52;101009.25;;;25.71;40.23
58245;BME280;44550;43.864;25.986;2022-07-21T03:27:54;100977.59;;;25.45;40.25
58245;BME280;44550;43.864;25.986;2022-07-21T03:31:56;101012.25;;;25.48;40.36
58245;BME280;44550;43.864;25.986;2022-07-21T03:35:56;101014.16;;;25.63;40.08
58245;BME280;44550;43.864;25.986;2022-07-21T03:39:57;101027.25;;;25.87;39.52
58245;BME280;44550;43.864;25.986;2022-07-21T03:43:57;101039.88;;;26.18;39.26
58245;BME280;44550;43.864;25.986;2022-07-21T03:48:00;101053.94;;;26.56;39.17
58245;BME280;44550;43.864;25.986;2022-07-21T03:52:00;101051.06;;;26.59;38.63
58245;BME280;44550;43.864;25.986;2022-07-21T03:56:06;101065.94;;;26.32;39.68
58245;BME280;44550;43.864;25.986;2022-07-21T04:00:09;101055.47;;;26.27;40.11
58245;BME280;44550;43.864;25.986;2022-07-21T04:04:12;101063.00;;;26.85;39.32
58245;BME280;44550;43.864;25.986;2022-07-21T04:08:18;101035.25;;;27.48;37.86
58245;BME280;44550;43.864;25.986;2022-07-21T04:12:29;101059.50;;;28.93;35.94
58245;BME280;44550;43.864;25.986;2022-07-21T04:16:29;101031.44;;;29.51;34.42
58245;BME280;44550;43.864;25.986;2022-07-21T04:20:50;101048.56;;;30.54;33.75
58245;BME280;44550;43.864;25.986;2022-07-21T04:24:50;101061.97;;;30.92;33.29
58245;BME280;44550;43.864;25.986;2022-07-21T04:28:55;101074.69;;;31.99;32.06
58245;BME280;44550;43.864;25.986;2022-07-21T04:32:56;101063.78;;;32.68;30.46
58245;BME280;44550;43.864;25.986;2022-07-21T04:36:58;101066.13;;;33.38;28.31
58245;BME280;44550;43.864;25.986;2022-07-21T04:41:02;101022.78;;;33.59;27.14
58245;BME280;44550;43.864;25.986;2022-07-21T04:45:09;101058.19;;;33.58;26.88
58245;BME280;44550;43.864;25.986;2022-07-21T04:49:25;101069.44;;;33.31;28.14
58245;BME280;44550;43.864;25.986;2022-07-21T04:53:35;101063.00;;;33.75;28.44
58245;BME280;44550;43.864;25.986;2022-07-21T04:57:52;101065.97;;;33.51;30.57
58245;BME280;44550;43.864;25.986;2022-07-21T05:02:35;101073.88;;;32.32;32.12
58245;BME280;44550;43.864;25.986;2022-07-21T05:11:59;101060.03;;;30.32;36.47
58245;BME280;44550;43.864;25.986;2022-07-21T05:16:47;101051.13;;;30.55;35.81
58245;BME280;44550;43.864;25.986;2022-07-21T05:22:34;101079.78;;;31.55;33.20
58245;BME280;44550;43.864;25.986;2022-07-21T05:27:42;101093.97;;;30.73;35.13
58245;BME280;44550;43.864;25.986;2022-07-21T05:43:52;101062.78;;;29.92;36.23
58245;BME280;44550;43.864;25.986;2022-07-21T05:48:16;101090.56;;;30.45;35.89
58245;BME280;44550;43.864;25.986;2022-07-21T05:52:22;101111.75;;;29.86;36.58
58245;BME280;44550;43.864;25.986;2022-07-21T05:56:22;101115.47;;;30.10;36.23
58245;BME280;44550;43.864;25.986;2022-07-21T06:00:32;101107.44;;;30.98;33.93
58245;BME280;44550;43.864;25.986;2022-07-21T06:04:40;101104.31;;;31.28;33.42
58245;BME280;44550;43.864;25.986;2022-07-21T06:08:41;101104.81;;;31.81;33.86
58245;BME280;44550;43.864;25.986;2022-07-21T06:13:03;101060.38;;;31.86;32.03
58245;BME280;44550;43.864;25.986;2022-07-21T06:17:50;101119.19;;;32.53;32.34
58245;BME280;44550;43.864;25.986;2022-07-21T06:21:51;101119.28;;;33.07;31.32
58245;BME280;44550;43.864;25.986;2022-07-21T06:25:55;101081.00;;;33.01;30.01
58245;BME280;44550;43.864;25.986;2022-07-21T06:29:55;101106.09;;;33.14;29.03
58245;BME280;44550;43.864;25.986;2022-07-21T06:34:40;101102.81;;;32.77;28.14
58245;BME280;44550;43.864;25.986;2022-07-21T06:38:48;101108.97;;;31.98;29.35
58245;BME280;44550;43.864;25.986;2022-07-21T06:42:50;101114.22;;;31.65;30.23
58245;BME280;44550;43.864;25.986;2022-07-21T06:47:10;101100.88;;;31.39;30.50
58245;BME280;44550;43.864;25.986;2022-07-21T06:51:17;101075.53;;;31.16;31.09
58245;BME280;44550;43.864;25.986;2022-07-21T06:55:16;101095.84;;;31.46;30.31
58245;BME280;44550;43.864;25.986;2022-07-21T06:59:17;101092.44;;;31.55;30.20
58245;BME280;44550;43.864;25.986;2022-07-21T07:03:20;101090.75;;;31.65;30.71
58245;BME280;44550;43.864;25.986;2022-07-21T07:07:22;101085.88;;;31.70;30.49
58245;BME280;44550;43.864;25.986;2022-07-21T07:11:25;101088.09;;;31.76;30.09
58245;BME280;44550;43.864;25.986;2022-07-21T07:15:25;101067.03;;;31.69;30.50
58245;BME280;44550;43.864;25.986;2022-07-21T07:19:33;101075.06;;;32.05;29.92
58245;BME280;44550;43.864;25.986;2022-07-21T07:23:53;101066.69;;;32.09;29.21
58245;BME280;44550;43.864;25.986;2022-07-21T07:28:13;101056.22;;;31.69;30.03
58245;BME280;44550;43.864;25.986;2022-07-21T07:32:23;101067.09;;;31.80;30.51
58245;BME280;44550;43.864;25.986;2022-07-21T07:36:36;101050.88;;;31.80;29.35
58245;BME280;44550;43.864;25.986;2022-07-21T07:40:48;101051.34;;;31.74;30.62
58245;BME280;44550;43.864;25.986;2022-07-21T07:49:35;101033.88;;;31.78;29.93
58245;BME280;44550;43.864;25.986;2022-07-21T07:58:23;101048.38;;;31.66;30.57
58245;BME280;44550;43.864;25.986;2022-07-21T08:03:05;101015.16;;;31.52;31.11
58245;BME280;44550;43.864;25.986;2022-07-21T08:06:54;101039.59;;;31.86;30.11
58245;BME280;44550;43.864;25.986;2022-07-21T08:11:04;101037.44;;;31.78;30.43
58245;BME280;44550;43.864;25.986;2022-07-21T08:15:19;101026.69;;;31.43;30.47
58245;BME280;44550;43.864;25.986;2022-07-21T08:19:24;101033.88;;;31.67;30.30
58245;BME280;44550;43.864;25.986;2022-07-21T08:23:35;101028.84;;;31.73;30.93
58245;BME280;44550;43.864;25.986;2022-07-21T08:27:37;101028.56;;;32.00;30.22
58245;BME280;44550;43.864;25.986;2022-07-21T08:31:43;101026.00;;;31.99;29.91
58245;BME280;44550;43.864;25.986;2022-07-21T08:35:43;100982.50;;;31.78;29.61
58245;BME280;44550;43.864;25.986;2022-07-21T08:39:43;101029.31;;;32.02;29.98
58245;BME280;44550;43.864;25.986;2022-07-21T08:43:56;101030.88;;;32.05;29.91
58245;BME280;44550;43.864;25.986;2022-07-21T08:48:00;101015.75;;;31.91;30.12
58245;BME280;44550;43.864;25.986;2022-07-21T08:52:01;101009.50;;;31.91;29.95
58245;BME280;44550;43.864;25.986;2022-07-21T08:56:12;101023.84;;;31.80;30.90
58245;BME280;44550;43.864;25.986;2022-07-21T09:00:25;101012.47;;;31.64;31.12
58245;BME280;44550;43.864;25.986;2022-07-21T09:04:32;101027.72;;;32.00;30.54
58245;BME280;44550;43.864;25.986;2022-07-21T09:08:37;101026.97;;;32.09;30.00
58245;BME280;44550;43.864;25.986;2022-07-21T09:12:55;101023.53;;;32.29;29.32
58245;BME280;44550;43.864;25.986;2022-07-21T09:17:02;101018.91;;;32.43;30.71
58245;BME280;44550;43.864;25.986;2022-07-21T09:21:11;101016.91;;;32.56;29.62
58245;BME280;44550;43.864;25.986;2022-07-21T09:25:11;101015.19;;;32.55;30.22
58245;BME280;44550;43.864;25.986;2022-07-21T09:29:39;101005.59;;;32.51;29.57
58245;BME280;44550;43.864;25.986;2022-07-21T09:33:41;101003.88;;;32.50;29.85
58245;BME280;44550;43.864;25.986;2022-07-21T09:37:43;101002.09;;;32.71;29.88
58245;BME280;44550;43.864;25.986;2022-07-21T09:41:44;100998.44;;;32.61;29.89
58245;BME280;44550;43.864;25.986;2022-07-21T09:45:49;100978.47;;;32.73;29.78
58245;BME280;44550;43.864;25.986;2022-07-21T09:49:50;100962.53;;;32.59;30.52
58245;BME280;44550;43.864;25.986;2022-07-21T09:54:13;100980.16;;;32.86;29.33
58245;BME280;44550;43.864;25.986;2022-07-21T09:58:12;100977.38;;;32.76;29.76
58245;BME280;44550;43.864;25.986;2022-07-21T10:02:16;100987.03;;;33.01;29.04
58245;BME280;44550;43.864;25.986;2022-07-21T10:06:23;100951.97;;;32.88;29.69
58245;BME280;44550;43.864;25.986;2022-07-21T10:10:28;100984.75;;;33.17;29.82
58245;BME280;44550;43.864;25.986;2022-07-21T10:15:19;100993.34;;;33.02;29.08
58245;BME280;44550;43.864;25.986;2022-07-21T10:19:23;100992.38;;;32.80;28.96
58245;BME280;44550;43.864;25.986;2022-07-21T10:23:34;100974.66;;;32.76;29.78
58245;BME280;44550;43.864;25.986;2022-07-21T10:27:39;100978.78;;;33.03;29.67
58245;BME280;44550;43.864;25.986;2022-07-21T10:32:10;100974.81;;;33.07;30.06
58245;BME280;44550;43.864;25.986;2022-07-21T10:36:41;100975.66;;;33.18;30.56
58245;BME280;44550;43.864;25.986;2022-07-21T10:40:41;100967.84;;;33.46;29.00
58245;BME280;44550;43.864;25.986;2022-07-21T10:44:48;100953.94;;;33.51;28.91
58245;BME280;44550;43.864;25.986;2022-07-21T10:48:49;100974.88;;;33.70;28.52
58245;BME280;44550;43.864;25.986;2022-07-21T10:53:01;100966.97;;;33.78;28.44
58245;BME280;44550;43.864;25.986;2022-07-21T10:57:28;100954.03;;;33.70;29.29
58245;BME280;44550;43.864;25.986;2022-07-21T11:01:30;100960.59;;;33.88;27.81
58245;BME280;44550;43.864;25.986;2022-07-21T11:05:31;100960.25;;;33.82;27.72
58245;BME280;44550;43.864;25.986;2022-07-21T11:14:16;100958.56;;;34.11;27.87
58245;BME280;44550;43.864;25.986;2022-07-21T11:18:34;100954.34;;;33.98;27.79
58245;BME280;44550;43.864;25.986;2022-07-21T11:22:56;100925.59;;;33.85;27.10
58245;BME280;44550;43.864;25.986;2022-07-21T11:27:07;100958.19;;;33.95;27.88
58245;BME280;44550;43.864;25.986;2022-07-21T11:31:25;100956.84;;;34.10;27.59
58245;BME280;44550;43.864;25.986;2022-07-21T11:35:54;100948.91;;;34.28;27.32
58245;BME280;44550;43.864;25.986;2022-07-21T11:40:40;100937.38;;;34.46;27.75
58245;BME280;44550;43.864;25.986;2022-07-21T11:44:47;100958.34;;;34.84;26.68
58245;BME280;44550;43.864;25.986;2022-07-21T11:49:00;100929.44;;;34.64;26.32
58245;BME280;44550;43.864;25.986;2022-07-21T11:53:04;100909.78;;;34.50;26.75
58245;BME280;44550;43.864;25.986;2022-07-21T11:57:05;100920.44;;;34.63;26.79
58245;BME280;44550;43.864;25.986;2022-07-21T12:01:06;100943.03;;;34.54;26.43
58245;BME280;44550;43.864;25.986;2022-07-21T12:05:09;100935.84;;;34.53;26.43
58245;BME280;44550;43.864;25.986;2022-07-21T12:09:13;100929.44;;;34.64;26.84
58245;BME280;44550;43.864;25.986;2022-07-21T12:13:13;100938.59;;;34.63;26.74
58245;BME280;44550;43.864;25.986;2022-07-21T12:17:13;100926.16;;;34.89;25.50
58245;BME280;44550;43.864;25.986;2022-07-21T12:21:13;100928.75;;;34.91;25.07
58245;BME280;44550;43.864;25.986;2022-07-21T12:25:29;100925.59;;;34.76;25.21
58245;BME280;44550;43.864;25.986;2022-07-21T12:29:39;100917.16;;;34.69;26.00
58245;BME280;44550;43.864;25.986;2022-07-21T12:33:43;100901.00;;;34.97;25.93
58245;BME280;44550;43.864;25.986;2022-07-21T12:38:06;100915.59;;;35.25;25.93
58245;BME280;44550;43.864;25.986;2022-07-21T12:42:29;100903.72;;;35.06;25.31
58245;BME280;44550;43.864;25.986;2022-07-21T12:46:30;100882.41;;;35.12;25.25
58245;BME280;44550;43.864;25.986;2022-07-21T12:50:32;100895.16;;;35.11;25.92
58245;BME280;44550;43.864;25.986;2022-07-21T12:54:32;100891.69;;;34.99;25.95
58245;BME280;44550;43.864;25.986;2022-07-21T12:58:35;100881.84;;;34.98;25.58
58245;BME280;44550;43.864;25.986;2022-07-21T13:02:46;100852.69;;;34.71;25.98
58245;BME280;44550;43.864;25.986;2022-07-21T13:06:47;100881.53;;;35.30;25.42
58245;BME280;44550;43.864;25.986;2022-07-21T13:10:48;100856.94;;;35.13;24.74
58245;BME280;44550;43.864;25.986;2022-07-21T13:14:51;100879.91;;;35.47;24.65
58245;BME280;44550;43.864;25.986;2022-07-21T13:18:51;100858.28;;;35.46;24.46
58245;BME280;44550;43.864;25.986;2022-07-21T13:22:53;100867.09;;;35.30;26.16
58245;BME280;44550;43.864;25.986;2022-07-21T13:26:53;100843.56;;;35.39;25.33
58245;BME280;44550;43.864;25.986;2022-07-21T13:30:55;100860.88;;;35.47;25.64
58245;BME280;44550;43.864;25.986;2022-07-21T13:34:54;100860.44;;;35.42;24.85
58245;BME280;44550;43.864;25.986;2022-07-21T13:39:14;100856.50;;;35.27;25.01
58245;BME280;44550;43.864;25.986;2022-07-21T13:43:35;100852.34;;;35.23;25.38
58245;BME280;44550;43.864;25.986;2022-07-21T13:47:39;100845.88;;;35.43;24.82
58245;BME280;44550;43.864;25.986;2022-07-21T13:51:40;100844.47;;;35.76;24.93
58245;BME280;44550;43.864;25.986;2022-07-21T13:55:40;100828.84;;;35.79;24.75
58245;BME280;44550;43.864;25.986;2022-07-21T13:59:40;100823.22;;;35.90;24.42
58245;BME280;44550;43.864;25.986;2022-07-21T14:03:44;100837.19;;;35.95;25.11
58245;BME280;44550;43.864;25.986;2022-07-21T14:07:45;100812.50;;;35.79;24.40
58245;BME280;44550;43.864;25.986;2022-07-21T14:11:47;100790.22;;;35.38;23.94
58245;BME280;44550;43.864;25.986;2022-07-21T14:15:47;100827.56;;;35.73;24.41
58245;BME280;44550;43.864;25.986;2022-07-21T14:19:50;100827.69;;;36.09;24.85
58245;BME280;44550;43.864;25.986;2022-07-21T14:23:50;100786.19;;;35.97;24.13
58245;BME280;44550;43.864;25.986;2022-07-21T14:28:11;100818.00;;;36.24;23.97
58245;BME280;44550;43.864;25.986;2022-07-21T14:32:11;100825.81;;;36.55;23.67
58245;BME280;44550;43.864;25.986;2022-07-21T14:36:16;100817.09;;;36.95;23.21
58245;BME280;44550;43.864;25.986;2022-07-21T14:40:17;100802.88;;;37.01;23.51
58245;BME280;44550;43.864;25.986;2022-07-21T14:44:20;100806.94;;;37.23;22.91
58245;BME280;44550;43.864;25.986;2022-07-21T14:48:20;100764.84;;;36.38;24.08
58245;BME280;44550;43.864;25.986;2022-07-21T14:52:24;100799.63;;;36.44;23.29
58245;BME280;44550;43.864;25.986;2022-07-21T14:56:26;100799.94;;;36.41;24.11
58245;BME280;44550;43.864;25.986;2022-07-21T15:00:46;100781.25;;;36.28;24.32
58245;BME280;44550;43.864;25.986;2022-07-21T15:04:47;100790.38;;;36.55;24.45
58245;BME280;44550;43.864;25.986;2022-07-21T15:08:49;100777.34;;;36.49;23.47
58245;BME280;44550;43.864;25.986;2022-07-21T15:12:49;100796.59;;;36.29;25.20
58245;BME280;44550;43.864;25.986;2022-07-21T15:16:50;100792.31;;;36.44;24.75
58245;BME280;44550;43.864;25.986;2022-07-21T15:20:49;100787.06;;;35.97;24.46
58245;BME280;44550;43.864;25.986;2022-07-21T15:24:51;100789.59;;;35.99;25.38
58245;BME280;44550;43.864;25.986;2022-07-21T15:28:51;100786.19;;;35.97;25.44
58245;BME280;44550;43.864;25.986;2022-07-21T15:32:51;100783.97;;;35.83;25.11
58245;BME280;44550;43.864;25.986;2022-07-21T15:36:51;100750.91;;;35.60;24.63
58245;BME280;44550;43.864;25.986;2022-07-21T15:40:56;100782.38;;;35.90;24.72
58245;BME280;44550;43.864;25.986;2022-07-21T15:44:58;100780.03;;;35.95;24.65
58245;BME280;44550;43.864;25.986;2022-07-21T15:48:58;100784.81;;;35.93;25.50
58245;BME280;44550;43.864;25.986;2022-07-21T15:52:58;100774.06;;;35.91;24.84
58245;BME280;44550;43.864;25.986;2022-07-21T15:57:00;100774.41;;;35.51;25.08
58245;BME280;44550;43.864;25.986;2022-07-21T16:01:00;100787.31;;;35.39;25.96
58245;BME280;44550;43.864;25.986;2022-07-21T16:05:00;100776.00;;;35.44;26.08
58245;BME280;44550;43.864;25.986;2022-07-21T16:09:00;100777.41;;;35.48;25.61
58245;BME280;44550;43.864;25.986;2022-07-21T16:13:02;100774.81;;;35.19;25.32
58245;BME280;44550;43.864;25.986;2022-07-21T16:17:02;100776.16;;;35.05;26.08
58245;BME280;44550;43.864;25.986;2022-07-21T16:21:01;100783.00;;;34.99;25.93
58245;BME280;44550;43.864;25.986;2022-07-21T16:25:01;100786.91;;;34.77;26.34
58245;BME280;44550;43.864;25.986;2022-07-21T16:29:03;100780.78;;;34.66;26.95
58245;BME280;44550;43.864;25.986;2022-07-21T16:33:02;100783.34;;;34.67;27.03
58245;BME280;44550;43.864;25.986;2022-07-21T16:37:06;100785.47;;;34.73;26.74
58245;BME280;44550;43.864;25.986;2022-07-21T16:41:15;100782.19;;;34.60;26.80
58245;BME280;44550;43.864;25.986;2022-07-21T16:45:20;100784.19;;;34.38;26.87
58245;BME280;44550;43.864;25.986;2022-07-21T16:49:31;100775.47;;;34.16;27.54
58245;BME280;44550;43.864;25.986;2022-07-21T16:53:31;100745.41;;;33.88;27.50
58245;BME280;44550;43.864;25.986;2022-07-21T16:57:40;100773.50;;;33.77;27.73
58245;BME280;44550;43.864;25.986;2022-07-21T17:01:49;100777.88;;;33.59;27.95
58245;BME280;44550;43.864;25.986;2022-07-21T17:05:52;100775.78;;;33.41;28.32
58245;BME280;44550;43.864;25.986;2022-07-21T17:09:55;100774.59;;;33.25;28.97
58245;BME280;44550;43.864;25.986;2022-07-21T17:14:03;100774.59;;;33.34;28.71
58245;BME280;44550;43.864;25.986;2022-07-21T17:18:16;100768.28;;;33.24;28.92
58245;BME280;44550;43.864;25.986;2022-07-21T17:22:17;100770.88;;;33.26;29.17
58245;BME280;44550;43.864;25.986;2022-07-21T17:26:19;100772.78;;;33.14;29.35
58245;BME280;44550;43.864;25.986;2022-07-21T17:30:26;100769.44;;;33.01;29.53
58245;BME280;44550;43.864;25.986;2022-07-21T17:34:32;100767.47;;;32.82;29.83
58245;BME280;44550;43.864;25.986;2022-07-21T17:38:32;100764.22;;;32.67;30.02
58245;BME280;44550;43.864;25.986;2022-07-21T17:42:47;100769.47;;;32.47;30.14
58245;BME280;44550;43.864;25.986;2022-07-21T17:46:57;100770.16;;;32.28;30.33
58245;BME280;44550;43.864;25.986;2022-07-21T17:52:10;100776.69;;;32.15;30.58
58245;BME280;44550;43.864;25.986;2022-07-21T17:55:35;100735.13;;;31.72;30.78
58245;BME280;44550;43.864;25.986;2022-07-21T17:59:58;100770.25;;;31.83;30.97
58245;BME280;44550;43.864;25.986;2022-07-21T18:08:36;100786.38;;;31.63;31.36
58245;BME280;44550;43.864;25.986;2022-07-21T18:12:39;100786.13;;;31.54;31.14
58245;BME280;44550;43.864;25.986;2022-07-21T18:16:54;100774.13;;;31.36;31.38
58245;BME280;44550;43.864;25.986;2022-07-21T18:21:05;100796.03;;;31.09;32.05
58245;BME280;44550;43.864;25.986;2022-07-21T18:25:08;100782.38;;;30.88;32.28
58245;BME280;44550;43.864;25.986;2022-07-21T18:29:11;100811.84;;;31.02;32.27
58245;BME280;44550;43.864;25.986;2022-07-21T18:33:15;100805.09;;;30.97;32.38
58245;BME280;44550;43.864;25.986;2022-07-21T18:37:41;100799.16;;;30.80;32.57
58245;BME280;44550;43.864;25.986;2022-07-21T18:41:51;100814.03;;;30.62;32.92
58245;BME280;44550;43.864;25.986;2022-07-21T18:45:51;100799.13;;;30.45;33.08
58245;BME280;44550;43.864;25.986;2022-07-21T18:49:54;100827.38;;;30.28;33.52
58245;BME280;44550;43.864;25.986;2022-07-21T18:53:59;100828.91;;;30.19;33.69
58245;BME280;44550;43.864;25.986;2022-07-21T18:58:14;100814.06;;;30.01;33.63
58245;BME280;44550;43.864;25.986;2022-07-21T19:02:36;100815.06;;;30.00;33.80
58245;BME280;44550;43.864;25.986;2022-07-21T19:07:02;100834.00;;;30.11;33.77
58245;BME280;44550;43.864;25.986;2022-07-21T19:11:58;100821.81;;;30.06;33.73
58245;BME280;44550;43.864;25.986;2022-07-21T19:16:01;100830.25;;;30.01;33.83
58245;BME280;44550;43.864;25.986;2022-07-21T19:20:01;100831.91;;;29.91;34.06
58245;BME280;44550;43.864;25.986;2022-07-21T19:24:01;100834.72;;;29.77;34.33
58245;BME280;44550;43.864;25.986;2022-07-21T19:28:02;100840.44;;;29.59;34.46
58245;BME280;44550;43.864;25.986;2022-07-21T19:32:05;100833.13;;;29.48;34.56
58245;BME280;44550;43.864;25.986;2022-07-21T19:36:05;100813.97;;;29.15;34.92
58245;BME280;44550;43.864;25.986;2022-07-21T19:40:06;100851.31;;;29.19;35.23
58245;BME280;44550;43.864;25.986;2022-07-21T19:44:06;100860.91;;;29.23;35.15
58245;BME280;44550;43.864;25.986;2022-07-21T19:48:08;100847.88;;;29.05;35.36
58245;BME280;44550;43.864;25.986;2022-07-21T19:52:14;100858.84;;;29.01;35.66
58245;BME280;44550;43.864;25.986;2022-07-21T19:56:14;100852.19;;;28.80;36.12
58245;BME280;44550;43.864;25.986;2022-07-21T20:00:18;100856.38;;;28.71;36.47
58245;BME280;44550;43.864;25.986;2022-07-21T20:04:21;100854.09;;;28.65;36.73
58245;BME280;44550;43.864;25.986;2022-07-21T20:08:21;100848.44;;;28.43;37.25
58245;BME280;44550;43.864;25.986;2022-07-21T20:12:42;100858.53;;;28.39;37.88
58245;BME280;44550;43.864;25.986;2022-07-21T20:16:45;100835.06;;;28.00;38.92
58245;BME280;44550;43.864;25.986;2022-07-21T20:21:16;100860.88;;;28.02;39.93
58245;BME280;44550;43.864;25.986;2022-07-21T20:25:17;100847.38;;;27.75;40.72
58245;BME280;44550;43.864;25.986;2022-07-21T20:29:17;100868.75;;;27.91;41.25
58245;BME280;44550;43.864;25.986;2022-07-21T20:33:20;100864.00;;;27.82;41.52
58245;BME280;44550;43.864;25.986;2022-07-21T20:37:23;100857.22;;;27.75;41.95
58245;BME280;44550;43.864;25.986;2022-07-21T20:41:23;100840.28;;;27.46;42.95
58245;BME280;44550;43.864;25.986;2022-07-21T20:45:23;100871.22;;;27.51;43.89
58245;BME280;44550;43.864;25.986;2022-07-21T20:49:23;100878.25;;;27.39;44.40
58245;BME280;44550;43.864;25.986;2022-07-21T20:53:43;100874.59;;;27.40;44.89
58245;BME280;44550;43.864;25.986;2022-07-21T20:57:46;100880.81;;;27.27;45.66
58245;BME280;44550;43.864;25.986;2022-07-21T21:01:50;100880.59;;;27.15;46.37
58245;BME280;44550;43.864;25.986;2022-07-21T21:06:22;100862.88;;;26.97;46.91
58245;BME280;44550;43.864;25.986;2022-07-21T21:10:54;100877.75;;;27.03;47.29
58245;BME280;44550;43.864;25.986;2022-07-21T21:15:10;100871.25;;;26.77;47.98
58245;BME280;44550;43.864;25.986;2022-07-21T21:19:10;100882.69;;;26.64;48.62
58245;BME280;44550;43.864;25.986;2022-07-21T21:23:10;100889.88;;;26.64;48.88
58245;BME280;44550;43.864;25.986;2022-07-21T21:27:14;100884.44;;;26.50;49.30
58245;BME280;44550;43.864;25.986;2022-07-21T21:31:14;100890.88;;;26.45;49.45
58245;BME280;44550;43.864;25.986;2022-07-21T21:35:14;100893.59;;;26.30;50.07
58245;BME280;44550;43.864;25.986;2022-07-21T21:39:14;100894.97;;;26.21;50.57
58245;BME280;44550;43.864;25.986;2022-07-21T21:43:16;100862.69;;;25.91;51.14
58245;BME280;44550;43.864;25.986;2022-07-21T21:47:17;100902.47;;;26.14;51.27
58245;BME280;44550;43.864;25.986;2022-07-21T21:51:17;100907.94;;;26.13;51.34